Content
SEND FEEDBACK

Daily
Averages
Monthly
Summary
Norway

MOSJOEN, NORWAY


Home > Europe > Norway
Elevation: 230 feet     Latitude: 65 48N     Longitude: 013 08E

WEATHER
 
SELECT A DAY
Number of Records: 101,456;   Date Range: 7/1/96 - 11/24/14
 
SHARE

PRINT THIS DATA

[ ← Previous Day ]
WEATHER ALMANAC - JANUARY 31, 2013
[ Next Day → ]
[ °C ]   °F
Weather ElementAverageHighLow
Temperature30.1 °F32 °F (4:50 am)28.4 °F (9:20 am)
Dewpoint27.2 °F30.2 °F (1:20 pm)23 °F (9:20 am)
Humidity88.9 %100 % (1:20 pm)69 % (7:00 am)
Barometer28.91 in28.99 in (7:00 pm)28.75 in (4:00 am)
Wind Speed4.7 mph10.4 mph (6:50 am)
Wind Gust21.9 mph (6:20 am)
Weather ElementAverage
Visibility4.8 mi
Wind DirectionESE (127.9 °)

Weather ElementTotal
Precipitation---
Heating Degree Days34.8 (Base 65)
Averaged from 43 records on January 31, 2013
WEATHER CONDITIONS BREAKOUT
WIND DIRECTION BREAKOUT
WEATHER BY HOUR - JANUARY 31, 2013
[ °C ]   °F
Local TimeTemperatureDewpointHumidityBarometerVisibilityWind DirectionWind SpeedGust SpeedPrecipitationEventsConditions
4:00 AM31.0 °F30.0 °F95 %28.75 inWNW (300°)4.5 mph
4:50 AM32.0 °F24.8 °F75 %28.77 in6.2 miNNW (330°)9.2 mphScattered Clouds
5:20 AM32.0 °F24.8 °F75 %28.77 in6.2 miNorth (350°)6.9 mph18.4 mphMostly Cloudy
5:50 AM32.0 °F24.8 °F75 %28.80 in6.2 miNNW (340°)6.9 mph19.6 mphMostly Cloudy
6:20 AM32.0 °F24.8 °F75 %28.80 in6.2 miVariable9.2 mph21.9 mphSnowLight Snow Showers
6:50 AM32.0 °F24.8 °F75 %28.80 in6.2 miNNW (330°)10.4 mphScattered Clouds
7:00 AM32.0 °F26.0 °F69 %28.83 inNNW (330°)6.7 mph
7:20 AM32.0 °F24.8 °F75 %28.82 in6.2 miNW (310°)9.2 mphSnowLight Snow Showers
7:50 AM32.0 °F26.6 °F80 %28.82 in6.2 miVariable3.5 mphSnowLight Snow Showers
8:20 AM30.2 °F24.8 °F80 %28.85 in6.2 miVariable3.5 mphScattered Clouds
8:50 AM30.2 °F24.8 °F80 %28.85 in6.2 miVariable3.5 mphPartly Cloudy
9:20 AM28.4 °F23.0 °F80 %28.88 in6.2 miVariable1.2 mphScattered Clouds
9:50 AM28.4 °F24.8 °F86 %28.88 in6.2 miVariable5.8 mphPartly Cloudy
10:00 AM29.0 °F27.0 °F87 %28.92 inSE (140°)2.2 mph
10:50 AM30.2 °F26.6 °F86 %28.91 in6.2 miVariable1.2 mphSnowLight Snow Showers
11:20 AM30.2 °F28.4 °F93 %28.91 in6.2 miSouth (170°)3.5 mphSnowLight Snow Showers
11:50 AM28.4 °F26.6 °F93 %28.91 in0.9 miSouth (170°)3.5 mphSnowSnow Showers
12:20 PM28.4 °F26.6 °F93 %28.91 in6.2 miSSW (200°)4.6 mphScattered Clouds
12:50 PM30.2 °F28.4 °F93 %28.91 in0.6 miNW (320°)4.6 mphSnowSnow Showers
1:20 PM30.2 °F30.2 °F100 %28.94 in1.9 miNW (320°)4.6 mphSnowLight Snow Showers
1:50 PM30.2 °F30.2 °F100 %28.94 in6.2 miSSE (150°)3.5 mphScattered Clouds
2:20 PM30.2 °F28.4 °F93 %28.94 in6.2 miVariable2.3 mphSnowLight Snow Showers
2:50 PM30.2 °F28.4 °F93 %28.94 in6.2 miVariable2.3 mphMostly Cloudy
3:20 PM30.2 °F28.4 °F93 %28.94 in6.2 miVariable3.5 mphSnowLight Snow Showers
3:50 PM30.2 °F28.4 °F93 %28.94 in6.2 miVariable2.3 mphSnowLight Snow Showers
4:00 PM31.0 °F29.0 °F91 %28.98 inWest (260°)6.7 mph
4:20 PM30.2 °F28.4 °F93 %28.94 in6.2 miVariable3.5 mphSnowLight Snow Showers
4:50 PM28.4 °F26.6 °F93 %28.97 in6.2 miVariable3.5 mphMostly Cloudy
5:20 PM28.4 °F26.6 °F93 %28.97 in6.2 miVariable2.3 mphMostly Cloudy
5:50 PM28.4 °F26.6 °F93 %28.97 in2.5 miVariable2.3 mphSnowLight Snow Showers
6:20 PM28.4 °F28.4 °F100 %28.97 in2.5 miVariable4.6 mphSnowLight Snow Showers
6:50 PM28.4 °F26.6 °F93 %28.97 in6.2 miSSE (160°)6.9 mphMostly Cloudy
7:00 PM29.0 °F28.0 °F92 %28.99 inSSE (160°)8.9 mph
7:20 PM28.4 °F26.6 °F93 %28.97 in1.9 miSouth (170°)9.2 mphSnowSnow Showers
7:50 PM28.4 °F26.6 °F93 %28.97 in6.2 miSouth (170°)5.8 mphMostly Cloudy
8:20 PM30.2 °F28.4 °F93 %28.94 in2.5 miSSE (150°)5.8 mphSnowSnow Showers
8:50 PM28.4 °F28.4 °F100 %28.94 in1.9 miSE (130°)5.8 mphSnowSnow Showers
9:20 PM30.2 °F28.4 °F93 %28.94 in3.7 miSW (230°)3.5 mphSnowLight Snow Showers
9:50 PM30.2 °F28.4 °F93 %28.94 in2.5 miVariable1.2 mphSnowLight Snow Showers
10:00 PM30.0 °F29.0 °F94 %28.98 inESE (110°)2.2 mph
10:20 PM30.2 °F28.4 °F93 %28.97 in2.5 miSSW (200°)3.5 mphSnowLight Snow Showers
10:50 PM30.2 °F30.2 °F100 %28.97 in1.9 miVariable4.6 mphSnowSnow Showers
11:50 PM32.0 °F28.4 °F87 %28.97 in1.9 miVariable2.3 mphSnowSnow Showers
Hourly data recorded from ENMS, located miles away from Mosjoen, Norway







STORIES FROM OUR PARTNERS